createdAt,value
2024-03-11T00:00:03.932Z,93590.00
2024-03-11T00:01:03.992Z,93605.00
2024-03-11T00:02:04.017Z,93615.00
2024-03-11T00:03:04.102Z,93624.00
2024-03-11T00:04:04.159Z,93625.00
2024-03-11T00:05:04.285Z,93619.00
2024-03-11T00:06:04.286Z,93614.00
2024-03-11T00:08:04.451Z,93607.00
2024-03-11T00:09:04.457Z,93617.00
2024-03-11T00:10:04.565Z,93619.00
2024-03-11T00:11:04.691Z,93622.00
2024-03-11T00:12:04.825Z,93619.00
2024-03-11T00:13:04.866Z,93611.00
2024-03-11T00:14:04.984Z,93612.00
2024-03-11T00:15:05.065Z,93613.00
2024-03-11T00:16:05.210Z,93627.00
2024-03-11T00:17:05.305Z,93627.00
2024-03-11T00:18:05.494Z,93624.00
2024-03-11T00:19:05.505Z,93627.00
2024-03-11T00:20:05.735Z,93622.00
2024-03-11T00:21:05.723Z,93623.00
2024-03-11T00:22:05.829Z,93621.00
2024-03-11T00:23:05.930Z,93621.00
2024-03-11T00:24:05.985Z,93617.00
2024-03-11T00:25:06.102Z,93623.00
2024-03-11T00:26:06.208Z,93630.00
2024-03-11T00:27:06.317Z,93633.00
2024-03-11T00:28:06.408Z,93634.00
2024-03-11T00:29:06.543Z,93637.00
2024-03-11T00:30:06.613Z,93633.00
2024-03-11T00:31:06.696Z,93627.00
2024-03-11T00:32:07.015Z,93631.00
2024-03-11T00:33:06.976Z,93623.00
2024-03-11T00:34:07.035Z,93619.00
2024-03-11T00:35:07.165Z,93625.00
2024-03-11T00:36:07.257Z,93632.00
2024-03-11T00:37:07.946Z,93637.00
2024-03-11T00:38:07.535Z,93639.00
2024-03-11T00:39:07.623Z,93641.00
2024-03-11T00:40:07.733Z,93637.00
2024-03-11T00:41:07.867Z,93627.00
2024-03-11T00:42:07.898Z,93629.00
2024-03-11T00:43:07.994Z,93640.00
2024-03-11T00:44:08.112Z,93644.00
2024-03-11T00:45:08.212Z,93644.00
2024-03-11T00:46:08.333Z,93636.00
2024-03-11T00:47:08.473Z,93635.00
2024-03-11T00:48:08.620Z,93640.00
2024-03-11T00:49:09.600Z,93644.00
2024-03-11T00:50:08.805Z,93646.00
2024-03-11T00:51:08.869Z,93647.00
2024-03-11T00:52:08.953Z,93649.00
2024-03-11T00:53:09.042Z,93644.00
2024-03-11T00:54:09.126Z,93643.00
2024-03-11T00:55:09.257Z,93643.00
2024-03-11T00:56:09.394Z,93636.00
2024-03-11T00:57:09.449Z,93631.00
2024-03-11T00:58:09.569Z,93630.00
2024-03-11T00:59:09.706Z,93651.00
2024-03-11T01:00:09.751Z,93658.00
2024-03-11T01:01:09.906Z,93655.00
2024-03-11T01:02:09.977Z,93640.00
2024-03-11T01:03:10.044Z,93637.00
2024-03-11T01:04:10.172Z,93628.00
2024-03-11T01:05:10.656Z,93631.00
2024-03-11T01:06:10.373Z,93628.00
2024-03-11T01:07:19.901Z,93651.00
2024-03-11T01:08:11.543Z,93657.00
2024-03-11T01:09:10.507Z,93660.00
2024-03-11T01:10:10.518Z,93660.00
2024-03-11T01:11:10.618Z,93644.00
2024-03-11T01:12:10.600Z,93634.00
2024-03-11T01:13:10.594Z,93635.00
2024-03-11T01:14:10.650Z,93647.00
2024-03-11T01:15:10.640Z,93655.00
2024-03-11T01:16:10.702Z,93654.00
2024-03-11T01:17:10.739Z,93654.00
2024-03-11T01:18:10.803Z,93654.00
2024-03-11T01:19:10.912Z,93658.00
2024-03-11T01:20:11.526Z,93656.00
2024-03-11T01:21:11.085Z,93653.00
2024-03-11T01:22:11.088Z,93661.00
2024-03-11T01:23:11.232Z,93666.00
2024-03-11T01:24:11.210Z,93657.00
2024-03-11T01:25:11.966Z,93647.00
2024-03-11T01:26:11.443Z,93641.00
2024-03-11T01:27:11.442Z,93664.00
2024-03-11T01:28:11.522Z,93665.00
2024-03-11T01:29:11.623Z,93648.00
2024-03-11T01:30:11.647Z,93640.00
2024-03-11T01:31:11.887Z,93654.00
2024-03-11T01:32:11.782Z,93656.00
2024-03-11T01:33:11.940Z,93643.00
2024-03-11T01:34:11.986Z,93659.00
2024-03-11T01:35:12.135Z,93652.00
2024-03-11T01:36:12.189Z,93665.00
2024-03-11T01:37:12.298Z,93671.00
2024-03-11T01:38:12.475Z,93668.00
2024-03-11T01:39:12.502Z,93654.00
2024-03-11T01:40:12.717Z,93651.00
2024-03-11T01:41:12.741Z,93658.00
2024-03-11T01:42:12.829Z,93656.00
2024-03-11T01:43:12.947Z,93670.00
2024-03-11T01:44:13.030Z,93667.00
2024-03-11T01:45:13.178Z,93661.00
2024-03-11T01:46:13.269Z,93660.00
2024-03-11T01:47:13.387Z,93653.00
2024-03-11T01:48:13.543Z,93668.00
2024-03-11T01:49:13.527Z,93663.00
2024-03-11T01:50:13.726Z,93652.00
2024-03-11T01:51:13.909Z,93651.00
2024-03-11T01:52:13.901Z,93652.00
2024-03-11T01:53:13.998Z,93666.00
2024-03-11T01:54:14.061Z,93669.00
2024-03-11T01:55:14.182Z,93672.00
2024-03-11T01:56:14.292Z,93678.00
2024-03-11T01:57:14.364Z,93676.00
2024-03-11T01:58:14.479Z,93672.00
2024-03-11T01:59:14.573Z,93671.00
2024-03-11T02:00:14.652Z,93676.00
2024-03-11T02:01:16.194Z,93678.00
2024-03-11T02:02:14.777Z,93671.00
2024-03-11T02:03:14.764Z,93662.00
2024-03-11T02:04:14.827Z,93667.00
2024-03-11T02:05:15.007Z,93668.00
2024-03-11T02:06:14.941Z,93662.00
2024-03-11T02:07:14.988Z,93657.00
2024-03-11T02:08:14.866Z,93666.00
2024-03-11T02:09:14.886Z,93669.00
2024-03-11T02:10:15.252Z,93664.00
2024-03-11T02:11:15.067Z,93675.00
2024-03-11T02:12:15.041Z,93665.00
2024-03-11T02:13:14.996Z,93665.00
2024-03-11T02:14:15.055Z,93678.00
2024-03-11T02:15:15.130Z,93674.00
2024-03-11T02:16:15.058Z,93667.00
2024-03-11T02:17:15.063Z,93666.00
2024-03-11T02:18:15.191Z,93672.00
2024-03-11T02:19:15.138Z,93680.00
2024-03-11T02:20:15.212Z,93677.00
2024-03-11T02:21:15.156Z,93666.00
2024-03-11T02:22:15.203Z,93665.00
2024-03-11T02:23:15.250Z,93667.00
2024-03-11T02:24:15.275Z,93668.00
2024-03-11T02:25:15.299Z,93679.00
2024-03-11T02:26:15.331Z,93691.00
2024-03-11T02:27:15.360Z,93681.00
2024-03-11T02:28:15.403Z,93678.00
2024-03-11T02:29:15.472Z,93674.00
2024-03-11T02:30:15.410Z,93675.00
2024-03-11T02:31:15.461Z,93688.00
2024-03-11T02:32:15.496Z,93695.00
2024-03-11T02:33:15.535Z,93694.00
2024-03-11T02:34:15.466Z,93699.00
2024-03-11T02:35:16.595Z,93695.00
2024-03-11T02:36:15.555Z,93689.00
2024-03-11T02:37:15.567Z,93692.00
2024-03-11T02:38:15.586Z,93687.00
2024-03-11T02:39:15.682Z,93695.00
2024-03-11T02:40:15.776Z,93693.00
2024-03-11T02:41:15.864Z,93685.00
2024-03-11T02:42:15.959Z,93691.00
2024-03-11T02:43:16.070Z,93690.00
2024-03-11T02:44:16.307Z,93688.00
2024-03-11T02:45:16.622Z,93699.00
2024-03-11T02:46:16.301Z,93697.00
2024-03-11T02:47:16.463Z,93695.00
2024-03-11T02:48:16.556Z,93691.00
2024-03-11T02:49:16.605Z,93687.00
2024-03-11T02:50:16.775Z,93689.00
2024-03-11T02:51:16.856Z,93693.00
2024-03-11T02:52:16.943Z,93681.00
2024-03-11T02:53:17.329Z,93673.00
2024-03-11T02:54:17.099Z,93674.00
2024-03-11T02:55:17.187Z,93680.00
2024-03-11T02:56:17.360Z,93673.00
2024-03-11T02:57:17.406Z,93676.00
2024-03-11T02:58:17.535Z,93678.00
2024-03-11T02:59:17.753Z,93678.00
2024-03-11T03:00:17.746Z,93696.00
2024-03-11T03:01:17.833Z,93698.00
2024-03-11T03:02:17.949Z,93695.00
2024-03-11T03:03:18.057Z,93698.00
2024-03-11T03:04:18.153Z,93693.00
2024-03-11T03:05:18.323Z,93694.00
2024-03-11T03:06:18.360Z,93698.00
2024-03-11T03:07:18.438Z,93704.00
2024-03-11T03:08:18.622Z,93697.00
2024-03-11T03:09:18.635Z,93692.00
2024-03-11T03:10:19.036Z,93680.00
2024-03-11T03:11:18.921Z,93683.00
2024-03-11T03:12:18.958Z,93702.00
2024-03-11T03:13:19.027Z,93710.00
2024-03-11T03:14:19.158Z,93695.00
2024-03-11T03:15:19.377Z,93695.00
2024-03-11T03:16:19.383Z,93694.00
2024-03-11T03:17:19.423Z,93698.00
2024-03-11T03:18:19.628Z,93701.00
2024-03-11T03:19:19.629Z,93701.00
2024-03-11T03:20:19.812Z,93706.00
2024-03-11T03:21:19.845Z,93704.00
2024-03-11T03:22:19.975Z,93703.00
2024-03-11T03:23:20.094Z,93700.00
2024-03-11T03:24:20.134Z,93696.00
2024-03-11T03:25:20.275Z,93695.00
2024-03-11T03:26:20.406Z,93698.00
2024-03-11T03:27:20.462Z,93700.00
2024-03-11T03:28:20.595Z,93703.00
2024-03-11T03:29:20.665Z,93705.00
2024-03-11T03:30:20.782Z,93703.00
2024-03-11T03:31:20.827Z,93702.00
2024-03-11T03:32:21.005Z,93705.00
2024-03-11T03:33:21.058Z,93706.00
2024-03-11T03:34:21.122Z,93704.00
2024-03-11T03:35:21.245Z,93704.00
2024-03-11T03:36:21.325Z,93700.00
2024-03-11T03:37:21.381Z,93699.00
2024-03-11T03:38:21.554Z,93707.00
2024-03-11T03:39:21.597Z,93713.00
2024-03-11T03:40:21.703Z,93710.00
2024-03-11T03:41:21.983Z,93706.00
2024-03-11T03:42:21.823Z,93705.00
2024-03-11T03:43:21.955Z,93705.00
2024-03-11T03:44:22.102Z,93706.00
2024-03-11T03:45:22.147Z,93712.00
2024-03-11T03:46:22.264Z,93714.00
2024-03-11T03:47:22.345Z,93716.00
2024-03-11T03:48:22.477Z,93712.00
2024-03-11T03:49:22.555Z,93712.00
2024-03-11T03:50:22.658Z,93713.00
2024-03-11T03:51:22.732Z,93715.00
2024-03-11T03:52:22.813Z,93716.00
2024-03-11T03:53:22.944Z,93715.00
2024-03-11T03:54:23.018Z,93711.00
2024-03-11T03:55:23.090Z,93717.00
2024-03-11T03:56:23.245Z,93721.00
2024-03-11T03:57:23.303Z,93723.00
2024-03-11T03:58:23.390Z,93721.00
2024-03-11T03:59:23.609Z,93715.00
2024-03-11T04:00:23.584Z,93715.00
2024-03-11T04:01:23.690Z,93724.00
2024-03-11T04:02:23.767Z,93730.00
2024-03-11T04:03:23.865Z,93731.00
2024-03-11T04:04:23.972Z,93730.00
2024-03-11T04:05:24.148Z,93725.00
2024-03-11T04:06:24.170Z,93726.00
2024-03-11T04:07:24.277Z,93724.00
2024-03-11T04:08:24.376Z,93727.00
2024-03-11T04:09:24.457Z,93731.00
2024-03-11T04:10:24.516Z,93735.00
2024-03-11T04:11:24.747Z,93739.00
2024-03-11T04:12:24.801Z,93738.00
2024-03-11T04:13:24.778Z,93742.00
2024-03-11T04:14:32.031Z,93748.00
2024-03-11T04:15:31.952Z,93755.00
2024-03-11T04:16:31.941Z,93758.00
2024-03-11T04:17:32.025Z,93760.00
2024-03-11T04:18:32.108Z,93758.00
2024-03-11T04:19:31.976Z,93754.00
2024-03-11T04:20:32.035Z,93755.00
2024-03-11T04:21:32.054Z,93758.00
2024-03-11T04:22:32.121Z,93767.00
2024-03-11T04:23:32.328Z,93769.00
2024-03-11T04:24:32.249Z,93773.00
2024-03-11T04:25:32.493Z,93773.00
2024-03-11T04:26:32.484Z,93772.00
2024-03-11T04:27:32.503Z,93771.00
2024-03-11T04:28:32.574Z,93773.00
2024-03-11T04:29:32.649Z,93776.00
2024-03-11T04:30:32.696Z,93781.00
2024-03-11T04:31:39.874Z,93785.00
2024-03-11T04:32:39.908Z,93782.00
2024-03-11T04:33:39.896Z,93779.00
2024-03-11T04:34:39.905Z,93778.00
2024-03-11T04:35:39.909Z,93778.00
2024-03-11T04:36:39.892Z,93780.00
2024-03-11T04:37:39.917Z,93780.00
2024-03-11T04:38:39.956Z,93782.00
2024-03-11T04:39:39.930Z,93782.00
2024-03-11T04:40:39.951Z,93780.00
2024-03-11T04:41:40.104Z,93779.00
2024-03-11T04:42:39.988Z,93779.00
2024-03-11T04:43:40.005Z,93777.00
2024-03-11T04:44:40.066Z,93777.00
2024-03-11T04:45:40.026Z,93782.00
2024-03-11T04:46:40.060Z,93785.00
2024-03-11T04:47:40.157Z,93783.00
2024-03-11T04:48:40.183Z,93783.00
2024-03-11T04:49:40.104Z,93786.00
2024-03-11T04:50:42.971Z,93784.00
2024-03-11T04:51:40.156Z,93784.00
2024-03-11T04:52:40.172Z,93787.00
2024-03-11T04:53:40.228Z,93792.00
2024-03-11T04:54:40.184Z,93795.00
2024-03-11T04:55:40.227Z,93799.00
2024-03-11T04:56:40.307Z,93806.00
2024-03-11T04:57:40.286Z,93811.00
2024-03-11T04:58:40.292Z,93815.00
2024-03-11T04:59:40.323Z,93818.00
2024-03-11T05:00:40.380Z,93819.00
2024-03-11T05:01:40.363Z,93818.00
2024-03-11T05:02:40.414Z,93818.00
2024-03-11T05:03:40.409Z,93819.00
2024-03-11T05:04:40.408Z,93820.00
2024-03-11T05:05:40.491Z,93824.00
2024-03-11T05:06:40.480Z,93825.00
2024-03-11T05:07:40.490Z,93827.00
2024-03-11T05:08:40.554Z,93828.00
2024-03-11T05:09:40.591Z,93831.00
2024-03-11T05:10:40.637Z,93833.00
2024-03-11T05:11:40.740Z,93837.00
2024-03-11T05:12:40.653Z,93838.00
2024-03-11T05:13:40.637Z,93840.00
2024-03-11T05:14:40.700Z,93836.00
2024-03-11T05:15:40.666Z,93838.00
2024-03-11T05:16:40.720Z,93839.00
2024-03-11T05:17:44.278Z,93841.00
2024-03-11T05:18:40.790Z,93841.00
2024-03-11T05:19:40.764Z,93845.00
2024-03-11T05:20:40.847Z,93847.00
2024-03-11T05:21:40.819Z,93848.00
2024-03-11T05:22:40.775Z,93850.00
2024-03-11T05:23:40.936Z,93852.00
2024-03-11T05:24:40.800Z,93854.00
2024-03-11T05:25:40.850Z,93857.00
2024-03-11T05:26:40.929Z,93858.00
2024-03-11T05:27:40.880Z,93860.00
2024-03-11T05:28:41.875Z,93861.00
2024-03-11T05:29:41.008Z,93862.00
2024-03-11T05:30:40.957Z,93861.00
2024-03-11T05:31:40.902Z,93862.00
2024-03-11T05:32:41.057Z,93865.00
2024-03-11T05:33:40.992Z,93864.00
2024-03-11T05:34:40.972Z,93867.00
2024-03-11T05:35:40.978Z,93871.00
2024-03-11T05:36:41.018Z,93872.00
2024-03-11T05:37:41.008Z,93871.00
2024-03-11T05:38:41.033Z,93871.00
2024-03-11T05:39:41.097Z,93871.00
2024-03-11T05:40:41.120Z,93871.00
2024-03-11T05:41:41.283Z,93875.00
2024-03-11T05:42:41.263Z,93880.00
2024-03-11T05:43:41.360Z,93884.00
2024-03-11T05:44:41.464Z,93889.00
2024-03-11T05:45:41.532Z,93893.00
2024-03-11T05:46:41.620Z,93896.00
2024-03-11T05:47:41.711Z,93897.00
2024-03-11T05:48:41.790Z,93899.00
2024-03-11T05:49:41.842Z,93901.00
2024-03-11T05:50:42.111Z,93904.00
2024-03-11T05:51:42.044Z,93905.00
2024-03-11T05:52:42.106Z,93908.00
2024-03-11T05:53:42.248Z,93907.00
2024-03-11T05:54:42.250Z,93910.00
2024-03-11T05:55:42.358Z,93911.00
2024-03-11T05:56:42.458Z,93913.00
2024-03-11T05:57:42.475Z,93914.00
2024-03-11T05:58:42.549Z,93917.00
2024-03-11T05:59:42.826Z,93919.00
2024-03-11T06:00:42.710Z,93920.00
2024-03-11T06:01:42.798Z,93924.00
2024-03-11T06:02:42.920Z,93923.00
2024-03-11T06:03:43.005Z,93923.00
2024-03-11T06:04:43.111Z,93927.00
2024-03-11T06:05:43.208Z,93927.00
2024-03-11T06:06:43.263Z,93928.00
2024-03-11T06:07:43.313Z,93931.00
2024-03-11T06:08:43.448Z,93930.00
2024-03-11T06:09:43.492Z,93931.00
2024-03-11T06:10:43.634Z,93933.00
2024-03-11T06:11:43.817Z,93935.00
2024-03-11T06:12:43.726Z,93935.00
2024-03-11T06:13:43.856Z,93937.00
2024-03-11T06:14:43.970Z,93936.00
2024-03-11T06:15:43.986Z,93940.00
2024-03-11T06:16:44.121Z,93943.00
2024-03-11T06:17:44.292Z,93944.00
2024-03-11T06:18:44.313Z,93946.00
2024-03-11T06:19:44.334Z,93948.00
2024-03-11T06:20:44.506Z,93948.00
2024-03-11T06:22:16.060Z,93956.00
2024-03-11T06:23:16.106Z,93952.00
2024-03-11T06:24:16.045Z,93954.00
2024-03-11T06:25:16.064Z,93954.00
2024-03-11T06:26:16.104Z,93953.00
2024-03-11T06:27:16.394Z,93954.00
2024-03-11T06:28:16.106Z,93954.00
2024-03-11T06:29:16.099Z,93953.00
2024-03-11T06:30:16.110Z,93953.00
2024-03-11T06:31:16.137Z,93960.00
2024-03-11T06:32:16.263Z,93957.00
2024-03-11T06:33:16.255Z,93959.00
2024-03-11T06:34:16.159Z,93963.00
2024-03-11T06:35:16.274Z,93965.00
2024-03-11T06:36:16.421Z,93962.00
2024-03-11T06:37:16.200Z,93966.00
2024-03-11T06:38:16.430Z,93966.00
2024-03-11T06:39:16.223Z,93967.00
2024-03-11T06:40:16.286Z,93967.00
2024-03-11T06:41:16.233Z,93964.00
2024-03-11T06:42:16.192Z,93966.00
2024-03-11T06:43:16.241Z,93966.00
2024-03-11T06:44:20.534Z,93969.00
2024-03-11T06:45:17.284Z,93964.00
2024-03-11T06:46:16.240Z,93965.00
2024-03-11T06:47:16.547Z,93963.00
2024-03-11T06:48:16.298Z,93965.00
2024-03-11T06:49:16.270Z,93966.00
2024-03-11T06:50:16.261Z,93967.00
2024-03-11T06:51:16.320Z,93968.00
2024-03-11T06:52:16.259Z,93966.00
2024-03-11T06:53:16.242Z,93968.00
2024-03-11T06:54:16.275Z,93972.00
2024-03-11T06:55:16.261Z,93967.00
2024-03-11T06:56:16.249Z,93968.00
2024-03-11T06:57:16.274Z,93970.00
2024-03-11T06:58:16.260Z,93964.00
2024-03-11T06:59:16.274Z,93966.00
2024-03-11T07:00:16.278Z,93966.00
2024-03-11T07:01:16.365Z,93968.00
2024-03-11T07:02:16.387Z,93967.00
2024-03-11T07:03:16.627Z,93969.00
2024-03-11T07:04:16.466Z,93971.00
2024-03-11T07:05:16.529Z,93973.00
2024-03-11T07:06:16.635Z,93974.00
2024-03-11T07:07:16.640Z,93978.00
2024-03-11T07:08:16.683Z,93980.00
2024-03-11T07:09:16.916Z,93981.00
2024-03-11T07:10:16.896Z,93983.00
2024-03-11T07:11:17.038Z,93985.00
2024-03-11T07:12:17.059Z,93985.00
2024-03-11T07:13:17.160Z,93986.00
2024-03-11T07:14:17.216Z,93991.00
2024-03-11T07:15:17.386Z,93990.00
2024-03-11T07:16:17.449Z,93992.00
2024-03-11T07:17:17.553Z,93994.00
2024-03-11T07:18:17.801Z,93994.00
2024-03-11T07:19:17.808Z,93995.00
2024-03-11T07:20:17.832Z,93996.00
2024-03-11T07:21:17.961Z,93999.00
2024-03-11T07:22:18.051Z,94003.00
2024-03-11T07:23:18.109Z,94006.00
2024-03-11T07:24:18.242Z,94011.00
2024-03-11T07:25:18.396Z,94010.00
2024-03-11T07:26:18.421Z,94015.00
2024-03-11T07:27:18.565Z,94018.00
2024-03-11T07:28:18.641Z,94016.00
2024-03-11T07:29:18.712Z,94019.00
2024-03-11T07:30:18.851Z,94023.00
2024-03-11T07:31:19.049Z,94024.00
2024-03-11T07:32:19.028Z,94025.00
2024-03-11T07:33:19.214Z,94027.00
2024-03-11T07:34:19.266Z,94030.00
2024-03-11T07:35:19.309Z,94031.00
2024-03-11T07:36:19.436Z,94036.00
2024-03-11T07:37:19.550Z,94037.00
2024-03-11T07:38:19.834Z,94044.00
2024-03-11T07:39:19.800Z,94046.00
2024-03-11T07:40:19.920Z,94047.00
2024-03-11T07:41:19.986Z,94048.00
2024-03-11T07:42:20.138Z,94052.00
2024-03-11T07:43:20.261Z,94054.00
2024-03-11T07:44:20.324Z,94052.00
2024-03-11T07:45:20.398Z,94043.00
2024-03-11T07:46:20.532Z,94047.00
2024-03-11T07:47:20.635Z,94053.00
2024-03-11T07:48:20.735Z,94048.00
2024-03-11T07:49:20.828Z,94052.00
2024-03-11T07:50:20.925Z,94048.00
2024-03-11T07:51:21.212Z,94046.00
2024-03-11T07:52:21.137Z,94058.00
2024-03-11T07:53:21.165Z,94055.00
2024-03-11T07:54:21.276Z,94056.00
2024-03-11T07:55:21.331Z,94058.00
2024-03-11T07:56:21.435Z,94056.00
2024-03-11T07:57:21.539Z,94056.00
2024-03-11T07:58:21.614Z,94057.00
2024-03-11T07:59:21.755Z,94058.00
2024-03-11T08:00:21.787Z,94061.00
2024-03-11T08:01:21.942Z,94064.00
2024-03-11T08:02:21.997Z,94065.00
2024-03-11T08:03:22.074Z,94065.00
2024-03-11T08:04:22.192Z,94068.00
2024-03-11T08:05:22.253Z,94071.00
2024-03-11T08:06:22.339Z,94069.00
2024-03-11T08:07:22.464Z,94069.00
2024-03-11T08:08:22.541Z,94068.00
2024-03-11T08:09:22.622Z,94066.00
2024-03-11T08:10:22.867Z,94064.00
2024-03-11T08:11:22.801Z,94062.00
2024-03-11T08:12:22.910Z,94064.00
2024-03-11T08:13:23.123Z,94063.00
2024-03-11T08:14:23.063Z,94062.00
2024-03-11T08:15:23.087Z,94060.00
2024-03-11T08:16:23.225Z,94066.00
2024-03-11T08:17:23.284Z,94063.00
2024-03-11T08:18:23.375Z,94063.00
2024-03-11T08:19:23.457Z,94061.00
2024-03-11T08:20:23.512Z,94062.00
2024-03-11T08:21:23.589Z,94061.00
2024-03-11T08:22:23.680Z,94060.00
2024-03-11T08:23:23.866Z,94055.00
2024-03-11T08:24:23.832Z,94050.00
2024-03-11T08:25:24.098Z,94048.00
2024-03-11T08:26:23.934Z,94051.00
2024-03-11T08:27:23.970Z,94044.00
2024-03-11T08:28:24.065Z,94045.00
2024-03-11T08:29:24.163Z,94041.00
2024-03-11T08:30:24.188Z,94047.00
2024-03-11T08:31:24.275Z,94045.00
2024-03-11T08:32:24.351Z,94047.00
2024-03-11T08:33:24.431Z,94048.00
2024-03-11T08:34:24.444Z,94045.00
2024-03-11T08:35:24.498Z,94043.00
2024-03-11T08:36:24.609Z,94044.00
2024-03-11T08:37:24.665Z,94041.00
2024-03-11T08:38:24.719Z,94039.00
2024-03-11T08:39:24.761Z,94036.00
2024-03-11T08:40:24.957Z,94036.00
2024-03-11T08:41:24.838Z,94030.00
2024-03-11T08:42:24.946Z,94034.00
2024-03-11T08:43:24.935Z,94031.00
2024-03-11T08:44:25.082Z,94031.00
2024-03-11T08:45:25.184Z,94031.00
2024-03-11T08:46:25.159Z,94039.00
2024-03-11T08:47:25.237Z,94039.00
2024-03-11T08:48:25.288Z,94037.00
2024-03-11T08:49:25.398Z,94038.00
2024-03-11T08:50:25.352Z,94034.00
2024-03-11T08:51:25.423Z,94034.00
2024-03-11T08:52:25.491Z,94033.00
2024-03-11T08:53:25.625Z,94032.00
2024-03-11T08:54:25.573Z,94032.00
2024-03-11T08:55:25.686Z,94031.00
2024-03-11T08:56:25.642Z,94032.00
2024-03-11T08:57:25.767Z,94033.00
2024-03-11T08:58:25.848Z,94034.00
2024-03-11T08:59:25.981Z,94036.00
2024-03-11T09:00:25.891Z,94034.00
2024-03-11T09:01:25.975Z,94033.00
2024-03-11T09:02:25.954Z,94033.00
2024-03-11T09:03:26.086Z,94030.00
2024-03-11T09:04:26.069Z,94027.00
2024-03-11T09:05:26.126Z,94026.00
2024-03-11T09:06:26.192Z,94026.00
2024-03-11T09:07:26.232Z,94023.00
2024-03-11T09:08:26.283Z,94025.00
2024-03-11T09:09:26.488Z,94021.00
2024-03-11T09:10:26.404Z,94026.00
2024-03-11T09:11:26.396Z,94024.00
2024-03-11T09:12:26.499Z,94022.00
2024-03-11T09:13:26.524Z,94018.00
2024-03-11T09:14:26.628Z,94017.00
2024-03-11T09:15:26.679Z,94016.00
2024-03-11T09:16:26.672Z,94013.00
2024-03-11T09:17:26.730Z,94011.00
2024-03-11T09:18:26.820Z,94010.00
2024-03-11T09:19:26.884Z,94005.00
2024-03-11T09:20:26.885Z,94004.00
2024-03-11T09:21:27.025Z,94004.00
2024-03-11T09:22:26.953Z,94007.00
2024-03-11T09:23:26.991Z,94003.00
2024-03-11T09:24:27.211Z,94004.00
2024-03-11T09:25:27.586Z,94001.00
2024-03-11T09:26:27.145Z,94001.00
2024-03-11T09:27:27.327Z,93997.00
2024-03-11T09:28:27.245Z,93998.00
2024-03-11T09:29:27.300Z,93997.00
2024-03-11T09:30:27.397Z,93994.00
2024-03-11T09:31:27.398Z,93994.00
2024-03-11T09:32:27.465Z,93992.00
2024-03-11T09:33:27.552Z,93994.00
2024-03-11T09:34:27.599Z,93996.00
2024-03-11T09:35:27.632Z,93996.00
2024-03-11T09:36:27.679Z,93996.00
2024-03-11T09:37:27.697Z,93995.00
2024-03-11T09:38:27.775Z,93988.00
2024-03-11T09:39:27.840Z,93985.00
2024-03-11T09:40:28.582Z,93987.00
2024-03-11T09:41:27.959Z,93983.00
2024-03-11T09:42:28.053Z,93982.00
2024-03-11T09:43:27.982Z,93979.00
2024-03-11T09:44:28.060Z,93977.00
2024-03-11T09:45:28.174Z,93978.00
2024-03-11T09:46:28.106Z,93977.00
2024-03-11T09:47:28.179Z,93976.00
2024-03-11T09:48:28.426Z,93973.00
2024-03-11T09:49:28.349Z,93975.00
2024-03-11T09:50:28.454Z,93974.00
2024-03-11T09:51:28.558Z,93976.00
2024-03-11T09:52:28.732Z,93974.00
2024-03-11T09:53:28.800Z,93973.00
2024-03-11T09:54:28.952Z,93972.00
2024-03-11T09:55:29.077Z,93971.00
2024-03-11T09:56:29.246Z,93971.00
2024-03-11T09:57:29.396Z,93973.00
2024-03-11T09:58:29.438Z,93972.00
2024-03-11T09:59:29.544Z,93974.00
2024-03-11T10:00:29.693Z,93973.00
2024-03-11T10:01:29.830Z,93976.00
2024-03-11T10:02:29.954Z,93974.00
2024-03-11T10:03:29.972Z,93971.00
2024-03-11T10:04:29.963Z,93970.00
2024-03-11T10:05:30.039Z,93969.00
2024-03-11T10:06:30.160Z,93970.00
2024-03-11T10:07:30.214Z,93971.00
2024-03-11T10:08:30.215Z,93970.00
2024-03-11T10:09:30.331Z,93969.00
2024-03-11T10:10:30.631Z,93972.00
2024-03-11T10:11:30.686Z,93971.00
2024-03-11T10:12:30.604Z,93973.00
2024-03-11T10:13:30.940Z,93973.00
2024-03-11T10:14:30.602Z,93972.00
2024-03-11T10:15:30.860Z,93973.00
2024-03-11T10:16:31.276Z,93973.00
2024-03-11T10:17:30.816Z,93974.00
2024-03-11T10:18:30.820Z,93974.00
2024-03-11T10:19:30.797Z,93976.00
2024-03-11T10:20:30.888Z,93974.00
2024-03-11T10:21:30.946Z,93973.00
2024-03-11T10:22:30.958Z,93974.00
2024-03-11T10:23:31.008Z,93975.00
2024-03-11T10:24:31.147Z,93974.00
2024-03-11T10:25:31.105Z,93970.00
2024-03-11T10:26:31.161Z,93971.00
2024-03-11T10:27:31.197Z,93975.00
2024-03-11T10:28:31.256Z,93969.00
2024-03-11T10:29:31.372Z,93968.00
2024-03-11T10:30:31.369Z,93968.00
2024-03-11T10:31:31.396Z,93970.00
2024-03-11T10:32:31.484Z,93970.00
2024-03-11T10:33:31.722Z,93970.00
2024-03-11T10:34:31.626Z,93969.00
2024-03-11T10:35:31.569Z,93969.00
2024-03-11T10:36:31.696Z,93969.00
2024-03-11T10:37:31.687Z,93969.00
2024-03-11T10:38:31.682Z,93968.00
2024-03-11T10:39:32.131Z,93967.00
2024-03-11T10:40:31.806Z,93968.00
2024-03-11T10:41:31.817Z,93966.00
2024-03-11T10:42:31.912Z,93964.00
2024-03-11T10:43:31.903Z,93965.00
2024-03-11T10:44:31.933Z,93962.00
2024-03-11T10:45:32.084Z,93962.00
2024-03-11T10:46:32.036Z,93958.00
2024-03-11T10:47:32.191Z,93957.00
2024-03-11T10:48:32.163Z,93957.00
2024-03-11T10:49:32.173Z,93956.00
2024-03-11T10:50:32.208Z,93955.00
2024-03-11T10:51:35.028Z,93951.00
2024-03-11T10:52:32.261Z,93951.00
2024-03-11T10:53:32.261Z,93951.00
2024-03-11T10:54:32.250Z,93951.00
2024-03-11T10:55:32.306Z,93948.00
2024-03-11T10:56:32.258Z,93945.00
2024-03-11T10:57:32.292Z,93944.00
2024-03-11T10:58:32.256Z,93945.00
2024-03-11T10:59:32.247Z,93942.00
2024-03-11T11:00:32.342Z,93940.00
2024-03-11T11:01:32.315Z,93939.00
2024-03-11T11:02:32.248Z,93938.00
2024-03-11T11:03:32.309Z,93939.00
2024-03-11T11:04:32.274Z,93940.00
2024-03-11T11:05:32.274Z,93936.00
2024-03-11T11:06:32.322Z,93937.00
2024-03-11T11:07:32.245Z,93937.00
2024-03-11T11:08:32.268Z,93934.00
2024-03-11T11:09:32.381Z,93935.00
2024-03-11T11:10:32.299Z,93931.00
2024-03-11T11:11:32.292Z,93929.00
2024-03-11T11:12:32.261Z,93929.00
2024-03-11T11:13:32.257Z,93929.00
2024-03-11T11:14:32.292Z,93927.00
2024-03-11T11:15:32.270Z,93928.00
2024-03-11T11:16:32.260Z,93926.00
2024-03-11T11:17:32.360Z,93926.00
2024-03-11T11:18:33.719Z,93927.00
2024-03-11T11:19:32.290Z,93926.00
2024-03-11T11:20:32.481Z,93929.00
2024-03-11T11:21:32.304Z,93929.00
2024-03-11T11:22:32.270Z,93933.00
2024-03-11T11:23:32.286Z,93931.00
2024-03-11T11:24:34.705Z,93932.00
2024-03-11T11:25:32.275Z,93932.00
2024-03-11T11:26:32.312Z,93929.00
2024-03-11T11:27:32.335Z,93930.00
2024-03-11T11:28:32.269Z,93929.00
2024-03-11T11:29:32.262Z,93927.00
2024-03-11T11:30:32.321Z,93928.00
2024-03-11T11:31:32.302Z,93928.00
2024-03-11T11:32:32.313Z,93928.00
2024-03-11T11:33:32.310Z,93928.00
2024-03-11T11:34:32.270Z,93928.00
2024-03-11T11:35:32.244Z,93927.00
2024-03-11T11:36:32.348Z,93927.00
2024-03-11T11:37:32.240Z,93925.00
2024-03-11T11:38:32.259Z,93927.00
2024-03-11T11:39:32.263Z,93923.00
2024-03-11T11:40:32.298Z,93921.00
2024-03-11T11:41:32.254Z,93924.00
2024-03-11T11:42:32.299Z,93926.00
2024-03-11T11:43:32.272Z,93924.00
2024-03-11T11:44:32.224Z,93924.00
2024-03-11T11:45:32.295Z,93923.00
2024-03-11T11:46:32.559Z,93923.00